sensor_id;sensor_type;location;lat;lon;timestamp;P1;durP1;ratioP1;P2;durP2;ratioP2
2542;SDS011;1116;51.502;7.414;2024-02-28T00:01:28;37.95;;;21.85;;
2542;SDS011;1116;51.502;7.414;2024-02-28T00:03:58;36.33;;;21.30;;
2542;SDS011;1116;51.502;7.414;2024-02-28T00:06:31;45.42;;;23.38;;
2542;SDS011;1116;51.502;7.414;2024-02-28T00:09:01;40.25;;;21.70;;
2542;SDS011;1116;51.502;7.414;2024-02-28T00:11:31;41.85;;;21.25;;
2542;SDS011;1116;51.502;7.414;2024-02-28T00:14:01;39.35;;;21.13;;
2542;SDS011;1116;51.502;7.414;2024-02-28T00:16:31;43.05;;;22.38;;
2542;SDS011;1116;51.502;7.414;2024-02-28T00:19:01;40.28;;;21.10;;
2542;SDS011;1116;51.502;7.414;2024-02-28T00:21:35;34.40;;;20.30;;
2542;SDS011;1116;51.502;7.414;2024-02-28T00:24:05;38.80;;;20.52;;
2542;SDS011;1116;51.502;7.414;2024-02-28T00:26:35;46.90;;;22.65;;
2542;SDS011;1116;51.502;7.414;2024-02-28T00:29:10;40.72;;;22.10;;
2542;SDS011;1116;51.502;7.414;2024-02-28T00:31:40;40.47;;;22.48;;
2542;SDS011;1116;51.502;7.414;2024-02-28T00:34:10;46.50;;;23.80;;
2542;SDS011;1116;51.502;7.414;2024-02-28T00:36:42;47.33;;;24.05;;
2542;SDS011;1116;51.502;7.414;2024-02-28T00:39:21;39.20;;;21.10;;
2542;SDS011;1116;51.502;7.414;2024-02-28T00:41:51;42.67;;;22.10;;
2542;SDS011;1116;51.502;7.414;2024-02-28T00:44:22;42.45;;;22.17;;
2542;SDS011;1116;51.502;7.414;2024-02-28T00:46:52;45.35;;;22.98;;
2542;SDS011;1116;51.502;7.414;2024-02-28T00:49:23;40.75;;;22.48;;
2542;SDS011;1116;51.502;7.414;2024-02-28T00:51:55;39.05;;;21.27;;
2542;SDS011;1116;51.502;7.414;2024-02-28T00:54:25;42.67;;;22.45;;
2542;SDS011;1116;51.502;7.414;2024-02-28T00:56:55;40.92;;;22.02;;
2542;SDS011;1116;51.502;7.414;2024-02-28T00:59:26;44.45;;;22.30;;
2542;SDS011;1116;51.502;7.414;2024-02-28T01:01:56;39.70;;;22.33;;
2542;SDS011;1116;51.502;7.414;2024-02-28T01:04:26;43.45;;;23.35;;
2542;SDS011;1116;51.502;7.414;2024-02-28T01:06:58;48.35;;;23.00;;
2542;SDS011;1116;51.502;7.414;2024-02-28T01:09:29;43.72;;;23.80;;
2542;SDS011;1116;51.502;7.414;2024-02-28T01:12:00;46.95;;;23.27;;
2542;SDS011;1116;51.502;7.414;2024-02-28T01:14:30;44.70;;;24.17;;
2542;SDS011;1116;51.502;7.414;2024-02-28T01:17:00;44.33;;;22.27;;
2542;SDS011;1116;51.502;7.414;2024-02-28T01:19:30;44.78;;;23.95;;
2542;SDS011;1116;51.502;7.414;2024-02-28T01:22:03;45.28;;;22.70;;
2542;SDS011;1116;51.502;7.414;2024-02-28T01:24:33;45.63;;;24.02;;
2542;SDS011;1116;51.502;7.414;2024-02-28T01:27:03;56.22;;;25.08;;
2542;SDS011;1116;51.502;7.414;2024-02-28T01:29:33;50.58;;;23.98;;
2542;SDS011;1116;51.502;7.414;2024-02-28T01:32:04;50.72;;;22.88;;
2542;SDS011;1116;51.502;7.414;2024-02-28T01:34:34;48.55;;;24.67;;
2542;SDS011;1116;51.502;7.414;2024-02-28T01:37:06;51.30;;;25.05;;
2542;SDS011;1116;51.502;7.414;2024-02-28T01:39:36;51.88;;;27.35;;
2542;SDS011;1116;51.502;7.414;2024-02-28T01:42:06;48.47;;;24.55;;
2542;SDS011;1116;51.502;7.414;2024-02-28T01:44:37;49.00;;;26.20;;
2542;SDS011;1116;51.502;7.414;2024-02-28T01:47:12;50.97;;;24.83;;
2542;SDS011;1116;51.502;7.414;2024-02-28T01:49:43;50.70;;;27.38;;
2542;SDS011;1116;51.502;7.414;2024-02-28T01:52:19;51.72;;;24.40;;
2542;SDS011;1116;51.502;7.414;2024-02-28T01:54:50;51.67;;;26.35;;
2542;SDS011;1116;51.502;7.414;2024-02-28T01:57:20;54.00;;;27.23;;
2542;SDS011;1116;51.502;7.414;2024-02-28T01:59:51;49.15;;;24.35;;
2542;SDS011;1116;51.502;7.414;2024-02-28T02:02:22;50.55;;;25.50;;
2542;SDS011;1116;51.502;7.414;2024-02-28T02:04:52;50.85;;;26.08;;
2542;SDS011;1116;51.502;7.414;2024-02-28T02:07:27;49.50;;;25.70;;
2542;SDS011;1116;51.502;7.414;2024-02-28T02:13:14;57.75;;;26.08;;
2542;SDS011;1116;51.502;7.414;2024-02-28T02:15:44;55.53;;;28.60;;
2542;SDS011;1116;51.502;7.414;2024-02-28T02:18:14;67.90;;;31.40;;
2542;SDS011;1116;51.502;7.414;2024-02-28T02:20:44;68.03;;;30.80;;
2542;SDS011;1116;51.502;7.414;2024-02-28T02:23:21;66.50;;;28.75;;
2542;SDS011;1116;51.502;7.414;2024-02-28T02:25:51;71.38;;;29.00;;
2542;SDS011;1116;51.502;7.414;2024-02-28T02:28:21;74.40;;;31.05;;
2542;SDS011;1116;51.502;7.414;2024-02-28T02:30:51;67.05;;;31.52;;
2542;SDS011;1116;51.502;7.414;2024-02-28T02:33:21;73.15;;;31.55;;
2542;SDS011;1116;51.502;7.414;2024-02-28T02:35:51;66.40;;;30.33;;
2542;SDS011;1116;51.502;7.414;2024-02-28T02:38:25;65.07;;;29.30;;
2542;SDS011;1116;51.502;7.414;2024-02-28T02:40:54;60.40;;;28.60;;
2542;SDS011;1116;51.502;7.414;2024-02-28T02:43:24;68.28;;;29.80;;
2542;SDS011;1116;51.502;7.414;2024-02-28T02:45:54;63.35;;;27.77;;
2542;SDS011;1116;51.502;7.414;2024-02-28T02:48:24;56.28;;;27.00;;
2542;SDS011;1116;51.502;7.414;2024-02-28T02:50:54;55.22;;;27.08;;
2542;SDS011;1116;51.502;7.414;2024-02-28T02:53:29;53.97;;;27.20;;
2542;SDS011;1116;51.502;7.414;2024-02-28T02:55:58;54.20;;;25.98;;
2542;SDS011;1116;51.502;7.414;2024-02-28T02:58:28;53.40;;;26.52;;
2542;SDS011;1116;51.502;7.414;2024-02-28T03:00:58;57.65;;;27.25;;
2542;SDS011;1116;51.502;7.414;2024-02-28T03:03:28;50.08;;;25.13;;
2542;SDS011;1116;51.502;7.414;2024-02-28T03:05:58;51.25;;;26.30;;
2542;SDS011;1116;51.502;7.414;2024-02-28T03:08:31;53.45;;;25.38;;
2542;SDS011;1116;51.502;7.414;2024-02-28T03:11:01;51.13;;;25.67;;
2542;SDS011;1116;51.502;7.414;2024-02-28T03:13:33;50.35;;;25.02;;
2542;SDS011;1116;51.502;7.414;2024-02-28T03:16:04;47.38;;;25.10;;
2542;SDS011;1116;51.502;7.414;2024-02-28T03:18:34;41.83;;;23.55;;
2542;SDS011;1116;51.502;7.414;2024-02-28T03:21:04;51.50;;;26.38;;
2542;SDS011;1116;51.502;7.414;2024-02-28T03:23:37;54.72;;;26.55;;
2542;SDS011;1116;51.502;7.414;2024-02-28T03:26:07;58.83;;;29.35;;
2542;SDS011;1116;51.502;7.414;2024-02-28T03:28:37;69.40;;;30.95;;
2542;SDS011;1116;51.502;7.414;2024-02-28T03:31:07;77.15;;;34.55;;
2542;SDS011;1116;51.502;7.414;2024-02-28T03:33:37;110.00;;;35.42;;
2542;SDS011;1116;51.502;7.414;2024-02-28T03:36:07;134.35;;;38.15;;
2542;SDS011;1116;51.502;7.414;2024-02-28T03:38:42;141.25;;;40.30;;
2542;SDS011;1116;51.502;7.414;2024-02-28T03:41:12;126.38;;;38.42;;
2542;SDS011;1116;51.502;7.414;2024-02-28T03:43:41;115.30;;;38.05;;
2542;SDS011;1116;51.502;7.414;2024-02-28T03:46:11;129.40;;;37.75;;
2542;SDS011;1116;51.502;7.414;2024-02-28T03:48:41;136.18;;;39.00;;
2542;SDS011;1116;51.502;7.414;2024-02-28T03:51:11;133.70;;;38.33;;
2542;SDS011;1116;51.502;7.414;2024-02-28T03:53:44;138.88;;;36.90;;
2542;SDS011;1116;51.502;7.414;2024-02-28T03:56:21;126.93;;;36.90;;
2542;SDS011;1116;51.502;7.414;2024-02-28T03:58:55;139.00;;;40.28;;
2542;SDS011;1116;51.502;7.414;2024-02-28T04:01:25;131.05;;;39.58;;
2542;SDS011;1116;51.502;7.414;2024-02-28T04:03:55;129.35;;;40.65;;
2542;SDS011;1116;51.502;7.414;2024-02-28T04:06:25;137.30;;;39.13;;
2542;SDS011;1116;51.502;7.414;2024-02-28T04:08:58;125.85;;;39.15;;
2542;SDS011;1116;51.502;7.414;2024-02-28T04:11:29;135.23;;;41.17;;
2542;SDS011;1116;51.502;7.414;2024-02-28T04:13:59;149.65;;;43.88;;
2542;SDS011;1116;51.502;7.414;2024-02-28T04:16:29;133.60;;;40.22;;
2542;SDS011;1116;51.502;7.414;2024-02-28T04:18:59;137.52;;;39.28;;
2542;SDS011;1116;51.502;7.414;2024-02-28T04:21:29;148.05;;;39.35;;
2542;SDS011;1116;51.502;7.414;2024-02-28T04:24:02;160.32;;;43.97;;
2542;SDS011;1116;51.502;7.414;2024-02-28T04:26:32;123.30;;;42.00;;
2542;SDS011;1116;51.502;7.414;2024-02-28T04:29:02;141.80;;;42.00;;
2542;SDS011;1116;51.502;7.414;2024-02-28T04:31:34;131.25;;;42.35;;
2542;SDS011;1116;51.502;7.414;2024-02-28T04:34:07;125.65;;;40.83;;
2542;SDS011;1116;51.502;7.414;2024-02-28T04:36:36;126.40;;;40.65;;
2542;SDS011;1116;51.502;7.414;2024-02-28T04:39:09;122.72;;;39.55;;
2542;SDS011;1116;51.502;7.414;2024-02-28T04:41:39;130.95;;;40.03;;
2542;SDS011;1116;51.502;7.414;2024-02-28T04:44:09;133.00;;;39.92;;
2542;SDS011;1116;51.502;7.414;2024-02-28T04:46:39;112.90;;;38.30;;
2542;SDS011;1116;51.502;7.414;2024-02-28T04:49:09;118.63;;;40.50;;
2542;SDS011;1116;51.502;7.414;2024-02-28T04:51:39;141.20;;;40.38;;
2542;SDS011;1116;51.502;7.414;2024-02-28T04:54:12;146.10;;;42.23;;
2542;SDS011;1116;51.502;7.414;2024-02-28T04:56:42;124.23;;;43.27;;
2542;SDS011;1116;51.502;7.414;2024-02-28T04:59:12;132.18;;;41.60;;
2542;SDS011;1116;51.502;7.414;2024-02-28T05:01:42;115.30;;;39.60;;
2542;SDS011;1116;51.502;7.414;2024-02-28T05:04:12;129.40;;;40.20;;
2542;SDS011;1116;51.502;7.414;2024-02-28T05:06:42;121.60;;;41.60;;
2542;SDS011;1116;51.502;7.414;2024-02-28T05:09:15;134.37;;;41.57;;
2542;SDS011;1116;51.502;7.414;2024-02-28T05:11:45;131.82;;;40.85;;
2542;SDS011;1116;51.502;7.414;2024-02-28T05:14:15;132.45;;;40.45;;
2542;SDS011;1116;51.502;7.414;2024-02-28T05:16:46;138.70;;;42.90;;
2542;SDS011;1116;51.502;7.414;2024-02-28T05:19:16;132.82;;;39.22;;
2542;SDS011;1116;51.502;7.414;2024-02-28T05:21:46;150.77;;;42.03;;
2542;SDS011;1116;51.502;7.414;2024-02-28T05:24:20;122.95;;;41.40;;
2542;SDS011;1116;51.502;7.414;2024-02-28T05:26:50;139.38;;;42.50;;
2542;SDS011;1116;51.502;7.414;2024-02-28T05:29:20;130.50;;;41.90;;
2542;SDS011;1116;51.502;7.414;2024-02-28T05:31:50;135.80;;;42.70;;
2542;SDS011;1116;51.502;7.414;2024-02-28T05:34:21;145.37;;;43.20;;
2542;SDS011;1116;51.502;7.414;2024-02-28T05:36:51;124.37;;;41.70;;
2542;SDS011;1116;51.502;7.414;2024-02-28T05:39:24;149.13;;;43.00;;
2542;SDS011;1116;51.502;7.414;2024-02-28T05:41:54;135.73;;;44.03;;
2542;SDS011;1116;51.502;7.414;2024-02-28T05:44:24;133.53;;;42.07;;
2542;SDS011;1116;51.502;7.414;2024-02-28T05:46:54;141.65;;;42.83;;
2542;SDS011;1116;51.502;7.414;2024-02-28T05:49:24;144.50;;;43.87;;
2542;SDS011;1116;51.502;7.414;2024-02-28T05:51:54;124.93;;;42.20;;
2542;SDS011;1116;51.502;7.414;2024-02-28T05:54:27;122.90;;;42.53;;
2542;SDS011;1116;51.502;7.414;2024-02-28T05:56:57;134.87;;;41.87;;
2542;SDS011;1116;51.502;7.414;2024-02-28T05:59:27;137.40;;;43.60;;
2542;SDS011;1116;51.502;7.414;2024-02-28T06:01:57;132.25;;;41.35;;
2542;SDS011;1116;51.502;7.414;2024-02-28T06:04:27;121.03;;;42.87;;
2542;SDS011;1116;51.502;7.414;2024-02-28T06:06:57;126.10;;;40.37;;
2542;SDS011;1116;51.502;7.414;2024-02-28T06:09:30;118.70;;;40.87;;
2542;SDS011;1116;51.502;7.414;2024-02-28T06:12:00;126.37;;;42.87;;
2542;SDS011;1116;51.502;7.414;2024-02-28T06:14:30;148.13;;;45.10;;
2542;SDS011;1116;51.502;7.414;2024-02-28T06:17:01;141.53;;;45.60;;
2542;SDS011;1116;51.502;7.414;2024-02-28T06:19:31;133.47;;;45.37;;
2542;SDS011;1116;51.502;7.414;2024-02-28T06:22:01;122.90;;;42.63;;
2542;SDS011;1116;51.502;7.414;2024-02-28T06:24:36;131.53;;;43.97;;
2542;SDS011;1116;51.502;7.414;2024-02-28T06:27:06;129.27;;;42.87;;
2542;SDS011;1116;51.502;7.414;2024-02-28T06:29:39;116.90;;;43.43;;
2542;SDS011;1116;51.502;7.414;2024-02-28T06:32:09;119.50;;;43.47;;
2542;SDS011;1116;51.502;7.414;2024-02-28T06:34:39;121.67;;;42.50;;
2542;SDS011;1116;51.502;7.414;2024-02-28T06:37:09;117.90;;;40.53;;
2542;SDS011;1116;51.502;7.414;2024-02-28T06:39:42;108.13;;;41.20;;
2542;SDS011;1116;51.502;7.414;2024-02-28T06:42:12;112.83;;;40.60;;
2542;SDS011;1116;51.502;7.414;2024-02-28T06:44:43;121.20;;;41.50;;
2542;SDS011;1116;51.502;7.414;2024-02-28T06:47:13;108.27;;;39.80;;
2542;SDS011;1116;51.502;7.414;2024-02-28T06:49:43;112.43;;;40.87;;
2542;SDS011;1116;51.502;7.414;2024-02-28T06:52:13;117.40;;;40.50;;
2542;SDS011;1116;51.502;7.414;2024-02-28T06:54:45;121.43;;;40.67;;
2542;SDS011;1116;51.502;7.414;2024-02-28T06:57:15;109.30;;;39.27;;
2542;SDS011;1116;51.502;7.414;2024-02-28T06:59:46;110.07;;;38.10;;
2542;SDS011;1116;51.502;7.414;2024-02-28T07:02:16;120.93;;;40.37;;
2542;SDS011;1116;51.502;7.414;2024-02-28T07:04:46;122.60;;;41.03;;
2542;SDS011;1116;51.502;7.414;2024-02-28T07:07:15;119.43;;;39.87;;
2542;SDS011;1116;51.502;7.414;2024-02-28T07:09:48;98.93;;;39.30;;
2542;SDS011;1116;51.502;7.414;2024-02-28T07:12:18;110.60;;;39.80;;
2542;SDS011;1116;51.502;7.414;2024-02-28T07:14:48;106.37;;;39.80;;
2542;SDS011;1116;51.502;7.414;2024-02-28T07:17:19;101.30;;;37.50;;
2542;SDS011;1116;51.502;7.414;2024-02-28T07:19:48;97.67;;;37.07;;
2542;SDS011;1116;51.502;7.414;2024-02-28T07:22:18;91.90;;;36.23;;
2542;SDS011;1116;51.502;7.414;2024-02-28T07:24:51;95.23;;;38.90;;
2542;SDS011;1116;51.502;7.414;2024-02-28T07:27:21;79.90;;;35.57;;
2542;SDS011;1116;51.502;7.414;2024-02-28T07:29:52;93.33;;;38.83;;
2542;SDS011;1116;51.502;7.414;2024-02-28T07:32:22;84.77;;;36.60;;
2542;SDS011;1116;51.502;7.414;2024-02-28T07:34:52;90.83;;;38.97;;
2542;SDS011;1116;51.502;7.414;2024-02-28T07:37:22;94.03;;;38.47;;
2542;SDS011;1116;51.502;7.414;2024-02-28T07:39:55;85.30;;;40.10;;
2542;SDS011;1116;51.502;7.414;2024-02-28T07:42:25;94.30;;;40.00;;
2542;SDS011;1116;51.502;7.414;2024-02-28T07:44:55;102.03;;;39.80;;
2542;SDS011;1116;51.502;7.414;2024-02-28T07:47:25;105.53;;;41.97;;
2542;SDS011;1116;51.502;7.414;2024-02-28T07:49:55;98.83;;;41.33;;
2542;SDS011;1116;51.502;7.414;2024-02-28T07:52:25;94.97;;;40.20;;
2542;SDS011;1116;51.502;7.414;2024-02-28T07:54:58;103.30;;;41.70;;
2542;SDS011;1116;51.502;7.414;2024-02-28T07:57:28;96.10;;;41.23;;
2542;SDS011;1116;51.502;7.414;2024-02-28T07:59:59;99.40;;;41.37;;
2542;SDS011;1116;51.502;7.414;2024-02-28T08:02:29;95.20;;;41.97;;
2542;SDS011;1116;51.502;7.414;2024-02-28T08:05:00;90.43;;;40.00;;
2542;SDS011;1116;51.502;7.414;2024-02-28T08:07:30;94.70;;;40.03;;
2542;SDS011;1116;51.502;7.414;2024-02-28T08:10:02;96.63;;;40.10;;
2542;SDS011;1116;51.502;7.414;2024-02-28T08:12:33;97.30;;;40.47;;
2542;SDS011;1116;51.502;7.414;2024-02-28T08:15:03;99.43;;;41.00;;
2542;SDS011;1116;51.502;7.414;2024-02-28T08:17:34;93.70;;;41.97;;
2542;SDS011;1116;51.502;7.414;2024-02-28T08:20:04;90.93;;;41.00;;
2542;SDS011;1116;51.502;7.414;2024-02-28T08:22:36;96.20;;;40.47;;
2542;SDS011;1116;51.502;7.414;2024-02-28T08:25:09;78.43;;;37.80;;
2542;SDS011;1116;51.502;7.414;2024-02-28T08:27:39;85.43;;;38.80;;
2542;SDS011;1116;51.502;7.414;2024-02-28T08:30:09;85.80;;;38.47;;
2542;SDS011;1116;51.502;7.414;2024-02-28T08:32:40;84.37;;;39.53;;
2542;SDS011;1116;51.502;7.414;2024-02-28T08:35:10;85.93;;;39.53;;
2542;SDS011;1116;51.502;7.414;2024-02-28T08:37:41;84.73;;;36.97;;
2542;SDS011;1116;51.502;7.414;2024-02-28T08:40:13;83.63;;;37.33;;
2542;SDS011;1116;51.502;7.414;2024-02-28T08:42:43;82.37;;;39.80;;
2542;SDS011;1116;51.502;7.414;2024-02-28T08:45:14;72.73;;;35.17;;
2542;SDS011;1116;51.502;7.414;2024-02-28T08:47:44;74.73;;;36.63;;
2542;SDS011;1116;51.502;7.414;2024-02-28T08:50:14;78.43;;;37.57;;
2542;SDS011;1116;51.502;7.414;2024-02-28T08:52:44;71.33;;;36.60;;
2542;SDS011;1116;51.502;7.414;2024-02-28T08:55:17;68.73;;;35.80;;
2542;SDS011;1116;51.502;7.414;2024-02-28T09:00:18;65.57;;;33.37;;
2542;SDS011;1116;51.502;7.414;2024-02-28T09:02:48;66.83;;;35.73;;
2542;SDS011;1116;51.502;7.414;2024-02-28T09:05:18;67.77;;;33.17;;
2542;SDS011;1116;51.502;7.414;2024-02-28T09:07:48;71.10;;;34.97;;
2542;SDS011;1116;51.502;7.414;2024-02-28T09:10:24;65.07;;;34.50;;
2542;SDS011;1116;51.502;7.414;2024-02-28T09:12:55;68.57;;;33.90;;
2542;SDS011;1116;51.502;7.414;2024-02-28T09:15:25;65.53;;;34.87;;
2542;SDS011;1116;51.502;7.414;2024-02-28T09:17:55;67.37;;;35.07;;
2542;SDS011;1116;51.502;7.414;2024-02-28T09:20:25;65.20;;;35.30;;
2542;SDS011;1116;51.502;7.414;2024-02-28T09:22:55;61.10;;;32.43;;
2542;SDS011;1116;51.502;7.414;2024-02-28T09:25:28;64.17;;;33.70;;
2542;SDS011;1116;51.502;7.414;2024-02-28T09:27:59;61.87;;;33.33;;
2542;SDS011;1116;51.502;7.414;2024-02-28T09:30:29;58.27;;;32.70;;
2542;SDS011;1116;51.502;7.414;2024-02-28T09:33:11;65.87;;;33.53;;
2542;SDS011;1116;51.502;7.414;2024-02-28T09:35:41;60.63;;;33.37;;
2542;SDS011;1116;51.502;7.414;2024-02-28T09:38:11;60.57;;;33.60;;
2542;SDS011;1116;51.502;7.414;2024-02-28T09:40:44;62.20;;;33.83;;
2542;SDS011;1116;51.502;7.414;2024-02-28T09:43:15;66.23;;;34.50;;
2542;SDS011;1116;51.502;7.414;2024-02-28T09:45:51;58.63;;;32.70;;
2542;SDS011;1116;51.502;7.414;2024-02-28T09:48:23;72.00;;;35.80;;
2542;SDS011;1116;51.502;7.414;2024-02-28T09:50:54;60.97;;;33.03;;
2542;SDS011;1116;51.502;7.414;2024-02-28T09:53:25;64.97;;;34.63;;
2542;SDS011;1116;51.502;7.414;2024-02-28T09:55:58;66.10;;;35.77;;
2542;SDS011;1116;51.502;7.414;2024-02-28T09:58:28;64.50;;;34.80;;
2542;SDS011;1116;51.502;7.414;2024-02-28T10:01:01;61.30;;;34.70;;
2542;SDS011;1116;51.502;7.414;2024-02-28T10:03:36;62.13;;;34.40;;
2542;SDS011;1116;51.502;7.414;2024-02-28T10:06:07;56.33;;;32.83;;
2542;SDS011;1116;51.502;7.414;2024-02-28T10:08:38;62.30;;;32.50;;
2542;SDS011;1116;51.502;7.414;2024-02-28T10:11:11;55.87;;;31.93;;
2542;SDS011;1116;51.502;7.414;2024-02-28T10:13:40;57.70;;;32.20;;
2542;SDS011;1116;51.502;7.414;2024-02-28T10:16:10;61.30;;;35.47;;
2542;SDS011;1116;51.502;7.414;2024-02-28T10:18:41;61.33;;;33.60;;
2542;SDS011;1116;51.502;7.414;2024-02-28T10:21:12;60.60;;;32.47;;
2542;SDS011;1116;51.502;7.414;2024-02-28T10:23:43;54.23;;;30.50;;
2542;SDS011;1116;51.502;7.414;2024-02-28T10:26:16;59.27;;;31.27;;
2542;SDS011;1116;51.502;7.414;2024-02-28T10:28:46;61.37;;;32.87;;
2542;SDS011;1116;51.502;7.414;2024-02-28T10:31:17;57.87;;;32.83;;
2542;SDS011;1116;51.502;7.414;2024-02-28T10:33:46;55.67;;;32.10;;
2542;SDS011;1116;51.502;7.414;2024-02-28T10:36:16;58.67;;;30.33;;
2542;SDS011;1116;51.502;7.414;2024-02-28T10:38:47;52.70;;;29.93;;
2542;SDS011;1116;51.502;7.414;2024-02-28T10:41:19;57.63;;;30.60;;
2542;SDS011;1116;51.502;7.414;2024-02-28T10:43:49;49.00;;;28.07;;
2542;SDS011;1116;51.502;7.414;2024-02-28T10:46:20;58.77;;;30.20;;
2542;SDS011;1116;51.502;7.414;2024-02-28T10:49:02;54.50;;;29.63;;
2542;SDS011;1116;51.502;7.414;2024-02-28T10:51:34;49.03;;;28.30;;
2542;SDS011;1116;51.502;7.414;2024-02-28T10:54:09;52.60;;;29.03;;
2542;SDS011;1116;51.502;7.414;2024-02-28T10:56:43;46.63;;;28.23;;
2542;SDS011;1116;51.502;7.414;2024-02-28T10:59:15;49.10;;;29.33;;
2542;SDS011;1116;51.502;7.414;2024-02-28T11:01:45;50.10;;;28.93;;
2542;SDS011;1116;51.502;7.414;2024-02-28T11:04:16;50.93;;;29.60;;
2542;SDS011;1116;51.502;7.414;2024-02-28T11:06:47;50.33;;;29.80;;
2542;SDS011;1116;51.502;7.414;2024-02-28T11:09:19;58.20;;;30.17;;
2542;SDS011;1116;51.502;7.414;2024-02-28T11:11:55;50.67;;;27.93;;
2542;SDS011;1116;51.502;7.414;2024-02-28T11:14:25;49.90;;;29.27;;
2542;SDS011;1116;51.502;7.414;2024-02-28T11:16:59;47.43;;;27.13;;
2542;SDS011;1116;51.502;7.414;2024-02-28T11:19:30;48.83;;;27.07;;
2542;SDS011;1116;51.502;7.414;2024-02-28T11:22:02;47.63;;;27.23;;
2542;SDS011;1116;51.502;7.414;2024-02-28T11:24:34;49.30;;;27.13;;
2542;SDS011;1116;51.502;7.414;2024-02-28T11:27:11;48.50;;;29.37;;
2542;SDS011;1116;51.502;7.414;2024-02-28T11:29:42;48.07;;;28.77;;
2542;SDS011;1116;51.502;7.414;2024-02-28T11:32:13;46.67;;;27.73;;
2542;SDS011;1116;51.502;7.414;2024-02-28T11:34:43;49.37;;;29.20;;
2542;SDS011;1116;51.502;7.414;2024-02-28T11:41:27;46.83;;;26.60;;
2542;SDS011;1116;51.502;7.414;2024-02-28T11:43:57;49.60;;;28.90;;
2542;SDS011;1116;51.502;7.414;2024-02-28T11:46:27;48.83;;;28.00;;
2542;SDS011;1116;51.502;7.414;2024-02-28T11:48:57;49.50;;;30.20;;
2542;SDS011;1116;51.502;7.414;2024-02-28T11:51:27;50.57;;;28.73;;
2542;SDS011;1116;51.502;7.414;2024-02-28T11:54:00;51.23;;;29.67;;
2542;SDS011;1116;51.502;7.414;2024-02-28T11:56:33;53.77;;;30.20;;
2542;SDS011;1116;51.502;7.414;2024-02-28T11:59:03;52.43;;;30.00;;
2542;SDS011;1116;51.502;7.414;2024-02-28T12:01:34;45.80;;;27.30;;
2542;SDS011;1116;51.502;7.414;2024-02-28T12:04:05;47.93;;;28.53;;
2542;SDS011;1116;51.502;7.414;2024-02-28T12:06:37;43.43;;;27.70;;
2542;SDS011;1116;51.502;7.414;2024-02-28T12:09:07;50.10;;;30.73;;
2542;SDS011;1116;51.502;7.414;2024-02-28T12:11:49;46.57;;;28.67;;
2542;SDS011;1116;51.502;7.414;2024-02-28T12:14:19;50.37;;;29.67;;
2542;SDS011;1116;51.502;7.414;2024-02-28T12:16:49;52.13;;;29.70;;
2542;SDS011;1116;51.502;7.414;2024-02-28T12:19:19;42.40;;;27.50;;
2542;SDS011;1116;51.502;7.414;2024-02-28T12:21:49;42.30;;;26.40;;
2542;SDS011;1116;51.502;7.414;2024-02-28T12:24:19;47.00;;;26.33;;
2542;SDS011;1116;51.502;7.414;2024-02-28T12:26:53;43.60;;;26.27;;
2542;SDS011;1116;51.502;7.414;2024-02-28T12:29:23;43.57;;;27.87;;
2542;SDS011;1116;51.502;7.414;2024-02-28T12:31:53;41.60;;;26.50;;
2542;SDS011;1116;51.502;7.414;2024-02-28T12:34:23;48.57;;;28.07;;
2542;SDS011;1116;51.502;7.414;2024-02-28T12:36:53;43.57;;;26.47;;
2542;SDS011;1116;51.502;7.414;2024-02-28T12:39:23;39.93;;;26.27;;
2542;SDS011;1116;51.502;7.414;2024-02-28T12:41:56;55.97;;;30.50;;
2542;SDS011;1116;51.502;7.414;2024-02-28T12:44:26;43.77;;;26.47;;
2542;SDS011;1116;51.502;7.414;2024-02-28T12:46:56;43.00;;;27.30;;
2542;SDS011;1116;51.502;7.414;2024-02-28T12:49:26;42.60;;;26.30;;
2542;SDS011;1116;51.502;7.414;2024-02-28T12:51:56;44.03;;;26.30;;
2542;SDS011;1116;51.502;7.414;2024-02-28T12:54:26;43.10;;;27.67;;
2542;SDS011;1116;51.502;7.414;2024-02-28T12:56:59;40.80;;;25.80;;
2542;SDS011;1116;51.502;7.414;2024-02-28T12:59:31;40.97;;;26.60;;
2542;SDS011;1116;51.502;7.414;2024-02-28T13:02:01;36.30;;;24.83;;
2542;SDS011;1116;51.502;7.414;2024-02-28T13:04:31;40.10;;;26.00;;
2542;SDS011;1116;51.502;7.414;2024-02-28T13:07:01;39.90;;;27.03;;
2542;SDS011;1116;51.502;7.414;2024-02-28T13:09:31;44.10;;;26.60;;
2542;SDS011;1116;51.502;7.414;2024-02-28T13:12:04;39.90;;;25.50;;
2542;SDS011;1116;51.502;7.414;2024-02-28T13:14:35;38.50;;;24.90;;
2542;SDS011;1116;51.502;7.414;2024-02-28T13:17:05;40.20;;;25.50;;
2542;SDS011;1116;51.502;7.414;2024-02-28T13:19:35;40.07;;;26.23;;
2542;SDS011;1116;51.502;7.414;2024-02-28T13:22:04;31.97;;;21.63;;
2542;SDS011;1116;51.502;7.414;2024-02-28T13:24:35;36.87;;;23.80;;
2542;SDS011;1116;51.502;7.414;2024-02-28T13:27:07;33.63;;;22.27;;
2542;SDS011;1116;51.502;7.414;2024-02-28T13:29:38;32.30;;;22.47;;
2542;SDS011;1116;51.502;7.414;2024-02-28T13:32:08;37.00;;;22.87;;
2542;SDS011;1116;51.502;7.414;2024-02-28T13:34:38;35.50;;;22.27;;
2542;SDS011;1116;51.502;7.414;2024-02-28T13:37:14;33.83;;;22.27;;
2542;SDS011;1116;51.502;7.414;2024-02-28T13:39:44;35.43;;;22.03;;
2542;SDS011;1116;51.502;7.414;2024-02-28T13:42:20;33.77;;;21.90;;
2542;SDS011;1116;51.502;7.414;2024-02-28T13:44:51;32.40;;;22.13;;
2542;SDS011;1116;51.502;7.414;2024-02-28T13:47:21;37.87;;;24.47;;
2542;SDS011;1116;51.502;7.414;2024-02-28T13:49:51;31.47;;;21.07;;
2542;SDS011;1116;51.502;7.414;2024-02-28T13:52:21;31.50;;;21.27;;
2542;SDS011;1116;51.502;7.414;2024-02-28T13:54:51;33.10;;;21.57;;
2542;SDS011;1116;51.502;7.414;2024-02-28T13:57:24;33.80;;;21.80;;
2542;SDS011;1116;51.502;7.414;2024-02-28T13:59:54;34.70;;;21.40;;
2542;SDS011;1116;51.502;7.414;2024-02-28T14:02:24;31.60;;;21.10;;
2542;SDS011;1116;51.502;7.414;2024-02-28T14:04:54;33.10;;;21.10;;
2542;SDS011;1116;51.502;7.414;2024-02-28T14:07:24;30.40;;;20.30;;
2542;SDS011;1116;51.502;7.414;2024-02-28T14:09:54;31.60;;;20.37;;
2542;SDS011;1116;51.502;7.414;2024-02-28T14:12:27;32.40;;;20.93;;
2542;SDS011;1116;51.502;7.414;2024-02-28T14:14:57;34.30;;;21.13;;
2542;SDS011;1116;51.502;7.414;2024-02-28T14:17:27;34.33;;;21.43;;
2542;SDS011;1116;51.502;7.414;2024-02-28T14:19:57;34.23;;;22.00;;
2542;SDS011;1116;51.502;7.414;2024-02-28T14:22:27;32.10;;;21.07;;
2542;SDS011;1116;51.502;7.414;2024-02-28T14:24:59;30.60;;;20.00;;
2542;SDS011;1116;51.502;7.414;2024-02-28T14:27:33;31.80;;;20.80;;
2542;SDS011;1116;51.502;7.414;2024-02-28T14:30:04;31.60;;;21.83;;
2542;SDS011;1116;51.502;7.414;2024-02-28T14:32:35;29.77;;;19.77;;
2542;SDS011;1116;51.502;7.414;2024-02-28T14:35:05;30.17;;;19.87;;
2542;SDS011;1116;51.502;7.414;2024-02-28T14:37:37;30.53;;;19.63;;
2542;SDS011;1116;51.502;7.414;2024-02-28T14:40:08;29.27;;;19.30;;
2542;SDS011;1116;51.502;7.414;2024-02-28T14:42:42;33.20;;;20.07;;
2542;SDS011;1116;51.502;7.414;2024-02-28T14:45:13;28.03;;;19.30;;
2542;SDS011;1116;51.502;7.414;2024-02-28T14:47:44;31.50;;;19.90;;
2542;SDS011;1116;51.502;7.414;2024-02-28T14:50:14;32.43;;;20.30;;
2542;SDS011;1116;51.502;7.414;2024-02-28T14:52:44;29.60;;;19.57;;
2542;SDS011;1116;51.502;7.414;2024-02-28T14:55:13;31.37;;;20.43;;
2542;SDS011;1116;51.502;7.414;2024-02-28T14:57:47;31.73;;;20.60;;
2542;SDS011;1116;51.502;7.414;2024-02-28T15:00:18;29.97;;;20.37;;
2542;SDS011;1116;51.502;7.414;2024-02-28T15:02:48;25.80;;;17.57;;
2542;SDS011;1116;51.502;7.414;2024-02-28T15:05:20;26.73;;;18.07;;
2542;SDS011;1116;51.502;7.414;2024-02-28T15:07:52;26.40;;;19.03;;
2542;SDS011;1116;51.502;7.414;2024-02-28T15:10:23;28.83;;;18.13;;
2542;SDS011;1116;51.502;7.414;2024-02-28T15:12:55;27.50;;;17.90;;
2542;SDS011;1116;51.502;7.414;2024-02-28T15:15:25;28.40;;;18.57;;